Time;durP1;ratioP1;P1;durP2;ratioP2;P2;SDS_P1;SDS_P2;PMS_P1;PMS_P2;Temp;Humidity;BMP_temperature;BMP_pressure;BME280_temperature;BME280_humidity;BME280_pressure;Samples;Min_cycle;Max_cycle;Signal;HPM_P1;HPM_P2
2022/09/07 00:01:36;;;;;;;14.55;8.60;;;;;;;16.53;100.00;96616.88;5009025;28;20029;-63
2022/09/07 00:04:02;;;;;;;16.25;8.77;;;;;;;16.49;100.00;96610.56;5026619;28;20026;-63
2022/09/07 00:06:28;;;;;;;17.02;9.50;;;;;;;16.40;100.00;96599.19;5027969;28;20022;-62
2022/09/07 00:08:53;;;;;;;20.65;10.18;;;;;;;16.24;100.00;96603.28;5026177;28;20479;-62
2022/09/07 00:11:19;;;;;;;13.30;10.13;;;;;;;16.22;100.00;96605.66;5028942;28;20041;-66
2022/09/07 00:13:46;;;;;;;21.05;10.07;;;;;;;16.18;100.00;96604.88;5010923;28;20087;-62
2022/09/07 00:16:15;;;;;;;17.85;9.57;;;;;;;16.15;100.00;96608.47;5028195;28;20544;-62
2022/09/07 00:18:41;;;;;;;14.13;9.32;;;;;;;16.20;100.00;96613.53;5027996;28;20033;-62
2022/09/07 00:21:08;;;;;;;15.45;9.90;;;;;;;16.32;100.00;96617.03;5031647;28;20081;-62
2022/09/07 00:23:36;;;;;;;13.70;9.07;;;;;;;16.44;100.00;96619.31;5025969;28;20104;-62
2022/09/07 00:26:10;;;;;;;15.95;9.57;;;;;;;16.62;100.00;96611.66;5029145;28;20036;-62
2022/09/07 00:28:36;;;;;;;11.27;8.07;;;;;;;16.68;100.00;96608.44;5027599;28;20021;-63
2022/09/07 00:31:03;;;;;;;12.73;8.90;;;;;;;16.70;100.00;96604.06;5011424;28;20446;-63
2022/09/07 00:33:29;;;;;;;13.25;8.45;;;;;;;16.70;100.00;96604.06;5030469;28;20036;-63
2022/09/07 00:35:57;;;;;;;16.50;8.35;;;;;;;16.67;100.00;96601.34;5027202;28;20393;-63
2022/09/07 00:38:23;;;;;;;17.15;8.35;;;;;;;16.55;100.00;96603.41;5028682;28;20049;-63
2022/09/07 00:40:48;;;;;;;12.70;8.32;;;;;;;16.23;100.00;96598.94;5041853;28;20037;-61
2022/09/07 00:43:27;;;;;;;16.80;9.38;;;;;;;16.11;100.00;96593.09;5027963;28;20546;-61
2022/09/07 00:45:52;;;;;;;17.60;9.52;;;;;;;16.15;100.00;96596.63;5027496;28;20037;-63
2022/09/07 00:48:20;;;;;;;12.90;8.38;;;;;;;16.28;100.00;96588.63;4994593;28;20602;-63
2022/09/07 00:50:52;;;;;;;14.70;7.60;;;;;;;16.45;100.00;96579.41;5028551;28;20112;-63
2022/09/07 00:53:26;;;;;;;16.33;8.40;;;;;;;16.55;100.00;96588.81;5027343;28;20033;-63
2022/09/07 00:55:52;;;;;;;12.00;7.65;;;;;;;16.67;100.00;96585.53;5009379;28;20040;-63
2022/09/07 00:58:20;;;;;;;15.85;8.77;;;;;;;16.74;100.00;96577.16;5028939;28;20224;-62
2022/09/07 01:00:48;;;;;;;12.10;7.45;;;;;;;16.84;100.00;96574.75;5028420;28;20160;-62
2022/09/07 01:03:22;;;;;;;19.40;7.65;;;;;;;16.90;100.00;96571.09;5011191;28;20028;-63
2022/09/07 01:05:54;;;;;;;14.32;7.00;;;;;;;16.96;100.00;96565.91;5026760;28;20036;-63
2022/09/07 01:08:20;;;;;;;13.57;6.72;;;;;;;17.03;100.00;96567.81;5027851;28;20040;-63
2022/09/07 01:10:46;;;;;;;13.85;6.85;;;;;;;17.06;100.00;96562.22;5030337;28;20458;-62
2022/09/07 01:13:11;;;;;;;9.55;6.57;;;;;;;17.12;100.00;96563.34;5028680;28;20034;-63
2022/09/07 01:16:35;;;;;;;12.18;7.60;;;;;;;17.13;100.00;96561.38;5028382;28;20063;-62
2022/09/07 01:19:11;;;;;;;11.27;7.50;;;;;;;17.17;100.00;96562.09;4980888;28;20050;-63
2022/09/07 01:21:56;;;;;;;11.43;8.05;;;;;;;17.21;100.00;96568.38;5048332;28;20057;-62
2022/09/07 01:24:21;;;;;;;15.63;7.82;;;;;;;17.16;100.00;96571.59;5037558;28;20021;-61
2022/09/07 01:27:01;;;;;;;16.77;8.20;;;;;;;17.09;100.00;96580.00;5036536;28;20028;-62
2022/09/07 01:29:34;;;;;;;;;;;;;;;17.10;100.00;96578.78;5035037;28;20034;-63
2022/09/07 01:32:04;;;;;;;16.90;8.77;;;;;;;17.06;100.00;96572.53;5034704;28;19932;-62
2022/09/07 01:34:30;;;;;;;;;;;;;;;17.01;100.00;96579.28;5035220;28;20378;-61
2022/09/07 01:37:14;;;;;;;13.52;7.63;;;;;;;16.96;100.00;96576.97;5033244;28;19957;-64
2022/09/07 01:39:51;;;;;;;13.82;7.43;;;;;;;16.94;100.00;96573.81;5035994;28;20383;-64
2022/09/07 01:42:22;;;;;;;15.32;7.95;;;;;;;16.89;100.00;96577.84;5033401;28;20036;-63
2022/09/07 01:44:56;;;;;;;11.57;7.22;;;;;;;16.85;100.00;96579.84;5035729;28;20081;-64
2022/09/07 01:47:43;;;;;;;15.82;8.32;;;;;;;16.77;100.00;96581.88;5045938;28;20032;-63
2022/09/07 01:50:19;;;;;;;12.40;7.15;;;;;;;16.60;100.00;96574.53;5057969;28;20101;-64
2022/09/07 01:53:15;;;;;;;11.63;7.95;;;;;;;16.42;100.00;96577.44;5020548;28;20624;-63
2022/09/07 01:55:55;;;;;;;14.35;7.57;;;;;;;16.40;100.00;96582.59;5045455;28;20036;-64
2022/09/07 01:58:28;;;;;;;14.20;7.85;;;;;;;16.44;100.00;96592.44;5040070;28;20033;-64
2022/09/07 02:01:01;;;;;;;18.38;7.50;;;;;;;16.41;100.00;96590.50;5039962;28;20033;-64
2022/09/07 02:03:30;;;;;;;14.68;7.80;;;;;;;16.23;100.00;96592.63;5057661;28;20032;-64
2022/09/07 02:06:03;;;;;;;10.98;7.28;;;;;;;16.12;100.00;96595.47;5056507;28;20021;-64
2022/09/07 02:08:41;;;;;;;12.65;7.75;;;;;;;16.24;100.00;96589.47;5044205;28;20037;-64
2022/09/07 02:11:16;;;;;;;15.32;7.93;;;;;;;16.27;100.00;96581.53;5054972;28;20033;-63
2022/09/07 02:13:52;;;;;;;14.70;7.55;;;;;;;16.45;100.00;96582.16;5022873;28;20370;-63
2022/09/07 02:16:25;;;;;;;12.70;8.23;;;;;;;16.50;100.00;96578.19;5055630;28;20107;-63
2022/09/07 02:19:15;;;;;;;11.93;7.32;;;;;;;16.57;100.00;96578.91;5057380;28;20100;-63
2022/09/07 02:21:45;;;;;;;14.82;7.95;;;;;;;16.44;100.00;96577.84;5051289;28;20029;-64
2022/09/07 02:24:23;;;;;;;19.67;8.05;;;;;;;16.17;100.00;96574.88;5056160;28;20033;-65
2022/09/07 02:26:50;;;;;;;15.77;9.88;;;;;;;15.91;100.00;96579.03;5064799;28;20098;-64
2022/09/07 02:29:16;;;;;;;20.98;11.38;;;;;;;15.57;100.00;96580.38;5049452;28;20029;-64
2022/09/07 02:31:41;;;;;;;18.23;12.32;;;;;;;15.60;100.00;96574.06;5043524;28;20084;-64
2022/09/07 02:34:07;;;;;;;25.85;13.73;;;;;;;15.55;100.00;96568.94;5051873;28;20083;-64
2022/09/07 02:36:39;;;;;;;20.98;13.57;;;;;;;15.52;100.00;96572.53;5053728;28;20093;-64
2022/09/07 02:39:04;;;;;;;18.63;12.35;;;;;;;15.62;100.00;96584.69;5052604;28;20029;-64
2022/09/07 02:41:38;;;;;;;19.70;13.10;;;;;;;15.65;100.00;96579.16;5052506;28;20108;-64
2022/09/07 02:44:09;;;;;;;19.25;12.93;;;;;;;15.63;100.00;96586.28;5045538;28;20025;-64
2022/09/07 02:46:51;;;;;;;21.65;12.27;;;;;;;15.76;100.00;96583.88;5057437;28;20098;-64
2022/09/07 02:49:48;;;;;;;17.00;11.77;;;;;;;15.84;100.00;96588.91;5065748;28;20467;-63
2022/09/07 02:52:29;;;;;;;20.85;11.48;;;;;;;15.95;100.00;96596.38;5054153;28;20037;-64
2022/09/07 02:54:57;;;;;;;21.63;11.15;;;;;;;15.96;100.00;96607.00;5053664;28;20041;-64
2022/09/07 02:57:32;;;;;;;17.70;11.77;;;;;;;16.04;100.00;96600.25;5041710;28;20113;-64
2022/09/07 03:00:10;;;;;;;17.63;9.38;;;;;;;16.04;100.00;96610.50;5049599;28;20400;-64
2022/09/07 03:03:05;;;;;;;17.63;9.95;;;;;;;16.10;100.00;96606.13;5053596;28;20033;-64
2022/09/07 03:05:54;;;;;;;14.70;9.77;;;;;;;16.15;100.00;96602.13;5053163;28;20025;-64
2022/09/07 03:08:28;;;;;;;17.57;10.27;;;;;;;16.13;100.00;96604.53;5053125;28;20029;-64
2022/09/07 03:10:55;;;;;;;15.40;9.32;;;;;;;16.13;100.00;96601.75;5025220;28;20033;-64
2022/09/07 03:13:26;;;;;;;11.10;8.05;;;;;;;16.12;100.00;96605.75;5044306;28;20029;-63
2022/09/07 03:15:52;;;;;;;15.20;8.40;;;;;;;16.14;100.00;96601.38;5035354;28;20021;-64
2022/09/07 03:18:18;;;;;;;14.50;8.13;;;;;;;16.12;100.00;96594.69;5053499;28;20084;-64
2022/09/07 03:20:44;;;;;;;13.43;8.30;;;;;;;16.13;100.00;96601.75;5035268;28;20063;-62
2022/09/07 03:23:09;;;;;;;15.32;8.85;;;;;;;16.04;100.00;96611.31;5053265;28;20048;-62
2022/09/07 03:25:34;;;;;;;13.93;8.75;;;;;;;15.67;100.00;96611.88;5049278;28;20119;-62
2022/09/07 03:28:00;;;;;;;19.00;11.02;;;;;;;15.21;100.00;96613.63;5045633;28;20068;-63
2022/09/07 03:30:25;;;;;;;21.63;11.00;;;;;;;15.02;100.00;96611.34;5053712;28;20044;-62
2022/09/07 03:32:51;;;;;;;20.33;11.98;;;;;;;14.98;100.00;96603.09;5053385;28;20033;-63
2022/09/07 03:35:17;;;;;;;20.52;10.88;;;;;;;15.04;100.00;96612.53;5035074;28;20394;-64
2022/09/07 03:37:42;;;;;;;17.05;11.35;;;;;;;15.21;100.00;96613.63;5052603;28;20068;-63
2022/09/07 03:40:10;;;;;;;12.90;9.93;;;;;;;15.33;100.00;96617.16;5046867;28;20065;-63
2022/09/07 03:42:36;;;;;;;18.20;11.77;;;;;;;15.37;100.00;96621.47;5024241;28;20088;-63
2022/09/07 03:45:02;;;;;;;22.50;11.18;;;;;;;15.34;100.00;96622.28;5032680;28;20029;-64
2022/09/07 03:47:28;;;;;;;22.98;11.63;;;;;;;15.36;100.00;96624.63;4998565;28;20025;-63
2022/09/07 03:49:54;;;;;;;19.38;11.20;;;;;;;15.23;100.00;96630.59;5032461;28;20032;-67
2022/09/07 03:52:19;;;;;;;21.23;10.65;;;;;;;15.19;100.00;96634.53;5032493;28;20029;-64
2022/09/07 03:54:45;;;;;;;19.45;11.02;;;;;;;15.37;100.00;96640.00;5031469;28;20120;-64
2022/09/07 03:57:10;;;;;;;19.23;11.63;;;;;;;15.48;100.00;96643.50;5041891;28;20177;-65
2022/09/07 03:59:36;;;;;;;24.10;13.00;;;;;;;15.44;100.00;96646.28;5034445;28;20833;-65
2022/09/07 04:02:01;;;;;;;27.58;12.50;;;;;;;15.28;100.00;96651.47;5034322;28;20045;-66
2022/09/07 04:04:27;;;;;;;26.05;12.63;;;;;;;15.21;100.00;96643.97;5052289;28;20037;-67
2022/09/07 04:06:53;;;;;;;24.48;13.25;;;;;;;15.19;100.00;96657.41;5052057;28;20394;-67
2022/09/07 04:09:18;;;;;;;25.15;14.13;;;;;;;15.17;100.00;96651.50;5047497;28;20033;-66
2022/09/07 04:11:43;;;;;;;19.83;12.60;;;;;;;15.23;100.00;96649.09;5039652;28;20048;-66
2022/09/07 04:14:10;;;;;;;21.13;12.80;;;;;;;15.38;100.00;96644.34;5041776;28;20029;-66
2022/09/07 04:16:36;;;;;;;23.95;13.23;;;;;;;15.54;100.00;96652.97;5051910;28;20108;-67
2022/09/07 04:19:02;;;;;;;20.65;12.88;;;;;;;15.59;100.00;96655.31;5057531;28;20032;-66
2022/09/07 04:21:30;;;;;;;21.23;12.60;;;;;;;15.62;100.00;96657.25;5046496;28;20040;-67
2022/09/07 04:23:56;;;;;;;17.88;11.70;;;;;;;15.64;100.00;96657.63;5048084;28;20052;-66
2022/09/07 04:26:23;;;;;;;20.17;12.13;;;;;;;15.61;100.00;96660.41;5038974;28;20075;-67
2022/09/07 04:28:49;;;;;;;24.13;13.57;;;;;;;15.54;100.00;96661.25;5002431;28;20037;-67
2022/09/07 04:31:16;;;;;;;18.73;11.35;;;;;;;15.50;100.00;96671.50;5024096;28;20401;-67
2022/09/07 04:33:43;;;;;;;26.20;12.05;;;;;;;15.55;100.00;96673.84;5051607;28;20033;-66
2022/09/07 04:36:09;;;;;;;21.00;12.18;;;;;;;15.55;100.00;96670.31;5051496;28;20437;-66
2022/09/07 04:38:35;;;;;;;22.65;13.02;;;;;;;15.73;100.00;96670.22;5033820;28;20043;-66
2022/09/07 04:41:02;;;;;;;22.15;14.43;;;;;;;15.78;100.00;96665.09;5045852;28;20135;-65
2022/09/07 04:43:28;;;;;;;25.83;13.98;;;;;;;15.82;100.00;96667.84;5043952;28;20041;-67
2022/09/07 04:45:54;;;;;;;25.13;13.55;;;;;;;15.70;100.00;96671.84;5051437;28;20033;-65
2022/09/07 04:48:19;;;;;;;39.30;14.88;;;;;;;15.39;100.00;96662.47;5031433;28;20029;-66
2022/09/07 04:50:44;;;;;;;68.97;14.95;;;;;;;15.19;100.00;96673.94;5039969;28;20500;-67
2022/09/07 04:53:10;;;;;;;55.63;14.77;;;;;;;14.99;100.00;96670.06;5012453;28;20034;-64
2022/09/07 04:55:35;;;;;;;28.05;15.18;;;;;;;15.03;100.00;96673.59;5014184;28;20041;-66
2022/09/07 04:58:00;;;;;;;37.50;16.38;;;;;;;15.07;100.00;96679.88;5053733;28;20029;-66
2022/09/07 05:00:26;;;;;;;29.95;16.50;;;;;;;15.19;100.00;96681.44;5051772;28;20498;-66
2022/09/07 05:02:51;;;;;;;31.88;16.67;;;;;;;15.40;100.00;96684.16;5022192;28;20052;-66
2022/09/07 05:05:17;;;;;;;28.42;16.55;;;;;;;15.55;100.00;96681.34;5041161;28;20071;-67
2022/09/07 05:07:42;;;;;;;30.48;16.55;;;;;;;15.70;100.00;96671.84;5051371;28;20474;-66
2022/09/07 05:10:08;;;;;;;29.17;15.45;;;;;;;15.86;100.00;96674.13;5059380;28;20064;-66
2022/09/07 05:12:33;;;;;;;31.13;17.25;;;;;;;15.98;100.00;96662.63;5037918;28;20028;-66
2022/09/07 05:15:00;;;;;;;26.63;14.93;;;;;;;16.11;100.00;96670.47;5026063;28;20053;-66
2022/09/07 05:17:26;;;;;;;24.15;15.48;;;;;;;16.27;100.00;96665.22;5069753;28;20029;-66
2022/09/07 05:19:53;;;;;;;27.40;16.48;;;;;;;16.25;100.00;96673.91;5032089;28;20038;-65
2022/09/07 05:22:19;;;;;;;23.85;16.02;;;;;;;16.37;100.00;96686.47;5050498;28;20112;-65
2022/09/07 05:24:46;;;;;;;24.77;14.73;;;;;;;16.50;100.00;96684.03;5033506;28;20108;-65
2022/09/07 05:27:11;;;;;;;27.55;17.23;;;;;;;16.52;100.00;96683.63;5050763;28;20091;-65
2022/09/07 05:29:37;;;;;;;26.90;16.35;;;;;;;16.59;100.00;96678.81;5038110;28;20034;-66
2022/09/07 05:32:02;;;;;;;24.95;16.40;;;;;;;16.53;100.00;96685.97;5039601;28;20367;-65
2022/09/07 05:34:28;;;;;;;25.27;15.55;;;;;;;16.34;100.00;96687.28;5016255;28;20064;-65
2022/09/07 05:36:53;;;;;;;24.95;15.90;;;;;;;16.19;100.00;96685.81;5032470;28;20040;-64
2022/09/07 05:39:19;;;;;;;27.20;15.73;;;;;;;15.93;100.00;96681.59;5032285;28;20057;-64
2022/09/07 05:41:45;;;;;;;30.73;16.80;;;;;;;15.97;100.00;96685.94;5032039;28;20030;-64
2022/09/07 05:44:11;;;;;;;27.63;16.73;;;;;;;16.08;100.00;96683.13;5031262;28;20037;-64
2022/09/07 05:46:37;;;;;;;25.92;17.35;;;;;;;16.13;100.00;96687.41;5059907;28;20021;-64
2022/09/07 05:49:02;;;;;;;31.42;19.00;;;;;;;16.01;100.00;96692.22;5068039;28;20084;-65
2022/09/07 05:51:28;;;;;;;32.17;18.25;;;;;;;15.97;100.00;96691.47;5044852;28;20040;-65
2022/09/07 05:53:55;;;;;;;29.17;18.60;;;;;;;15.96;100.00;96689.09;5043136;28;20047;-65
2022/09/07 05:56:20;;;;;;;32.58;19.15;;;;;;;15.98;100.00;96697.75;5050509;28;20030;-65
2022/09/07 05:58:49;;;;;;;33.90;18.83;;;;;;;16.07;100.00;96700.88;5023542;28;20048;-68
2022/09/07 06:01:16;;;;;;;34.60;21.20;;;;;;;16.02;100.00;96710.34;5023845;28;20025;-68
2022/09/07 06:03:41;;;;;;;29.83;19.08;;;;;;;16.15;100.00;96710.72;5033793;28;20026;-67
2022/09/07 06:06:13;;;;;;;34.60;20.67;;;;;;;16.20;100.00;96706.72;5003347;28;20096;-69
2022/09/07 06:08:44;;;;;;;31.98;19.95;;;;;;;16.23;100.00;96714.22;5037453;28;20048;-69
2022/09/07 06:11:12;;;;;;;37.58;20.75;;;;;;;16.35;100.00;96696.34;5038863;28;20052;-68
2022/09/07 06:13:38;;;;;;;31.60;18.55;;;;;;;16.62;100.00;96700.13;5035583;28;20045;-67
2022/09/07 06:16:06;;;;;;;27.70;18.15;;;;;;;16.99;100.00;96690.34;5029027;28;20061;-69
2022/09/07 06:18:34;;;;;;;31.92;18.13;;;;;;;17.33;100.00;96686.88;5026152;28;20568;-69
2022/09/07 06:21:03;;;;;;;28.35;18.08;;;;;;;16.81;100.00;96693.25;5036062;28;20068;-68
2022/09/07 06:23:33;;;;;;;28.88;19.00;;;;;;;16.60;100.00;96693.41;4992231;28;20049;-68
2022/09/07 06:25:59;;;;;;;32.70;19.40;;;;;;;16.32;100.00;96692.44;5010521;28;20042;-71
2022/09/07 06:28:29;;;;;;;32.47;18.95;;;;;;;16.35;100.00;96677.00;5019009;28;20228;-69
2022/09/07 06:31:06;;;;;;;32.40;20.27;;;;;;;16.52;100.00;96678.88;5007552;28;20038;-69
2022/09/07 06:33:32;;;;;;;37.53;20.42;;;;;;;16.66;100.00;96682.72;5003572;28;20034;-68
2022/09/07 06:35:59;;;;;;;35.40;20.15;;;;;;;16.70;100.00;96689.78;5028712;28;20051;-69
2022/09/07 06:38:30;;;;;;;29.40;18.83;;;;;;;17.04;100.00;96680.84;5022796;28;20041;-68
2022/09/07 06:41:07;;;;;;;29.73;18.25;;;;;;;17.42;100.00;96693.91;5044549;28;20145;-68
2022/09/07 06:43:33;;;;;;;21.27;14.32;;;;;;;18.23;100.00;96696.13;5044332;28;20512;-69
2022/09/07 06:45:59;;;;;;;17.40;12.77;;;;;;;18.95;100.00;96693.03;5035258;28;20053;-70
2022/09/07 06:48:25;;;;;;;17.60;12.45;;;;;;;19.75;100.00;96697.97;5000820;28;20436;-69
2022/09/07 06:50:58;;;;;;;16.63;10.52;;;;;;;20.92;100.00;96690.22;5023392;28;20033;-68
2022/09/07 06:53:25;;;;;;;13.60;9.35;;;;;;;19.61;100.00;96693.47;5019261;28;20662;-69
2022/09/07 06:55:51;;;;;;;12.35;8.35;;;;;;;19.68;100.00;96696.09;5032100;28;20107;-68
2022/09/07 06:58:16;;;;;;;11.55;8.32;;;;;;;19.88;100.00;96682.22;5035071;28;20091;-68
2022/09/07 07:00:42;;;;;;;13.80;8.32;;;;;;;19.91;100.00;96691.69;5039605;28;20044;-68
2022/09/07 07:03:08;;;;;;;15.82;7.70;;;;;;;19.99;100.00;96691.13;5030395;28;20041;-68
2022/09/07 07:05:33;;;;;;;12.57;8.15;;;;;;;20.51;100.00;96697.94;5045096;28;20469;-69
2022/09/07 07:07:58;;;;;;;12.57;7.13;;;;;;;22.16;100.00;96695.66;5035443;28;20076;-69
2022/09/07 07:10:25;;;;;;;9.60;6.30;;;;;;;21.32;100.00;96704.72;5021905;28;20072;-69
2022/09/07 07:12:55;;;;;;;17.48;7.15;;;;;;;22.01;100.00;96700.09;5040770;28;20068;-69
2022/09/07 07:15:23;;;;;;;12.52;7.30;;;;;;;22.67;100.00;96700.50;5018107;28;22100;-69
2022/09/07 07:17:49;;;;;;;10.75;6.43;;;;;;;22.75;100.00;96704.63;5003362;28;20148;-69
2022/09/07 07:20:14;;;;;;;9.13;6.28;;;;;;;22.44;100.00;96710.78;5017483;28;20132;-69
2022/09/07 07:22:40;;;;;;;10.60;6.45;;;;;;;23.35;100.00;96714.28;5004827;28;20040;-69
2022/09/07 07:25:05;;;;;;;9.50;6.32;;;;;;;24.40;100.00;96723.31;5028455;28;20102;-68
2022/09/07 07:27:31;;;;;;;9.48;6.25;;;;;;;24.94;100.00;96724.81;5023159;28;20397;-69
2022/09/07 07:29:56;;;;;;;11.05;6.25;;;;;;;23.21;100.00;96726.72;5028680;28;20041;-67
2022/09/07 07:32:22;;;;;;;9.55;5.70;;;;;;;24.39;100.00;96722.53;5021864;28;20791;-67
2022/09/07 07:34:47;;;;;;;9.23;5.55;;;;;;;25.12;100.00;96734.50;5006046;28;20042;-68
2022/09/07 07:37:14;;;;;;;14.50;4.57;;;;;;;27.35;96.13;96735.75;4997658;28;20046;-68
2022/09/07 07:39:40;;;;;;;7.40;3.83;;;;;;;28.89;83.79;96741.69;5003134;28;20449;-69
2022/09/07 07:42:06;;;;;;;9.68;3.72;;;;;;;28.98;81.45;96743.63;5023181;28;20478;-68
2022/09/07 07:44:31;;;;;;;11.52;4.07;;;;;;;30.34;73.63;96751.78;5033958;28;20049;-67
2022/09/07 07:46:57;;;;;;;7.68;3.60;;;;;;;30.74;71.54;96754.97;5028967;28;20099;-68
2022/09/07 07:49:22;;;;;;;11.98;3.67;;;;;;;31.41;66.01;96754.69;5017833;28;20050;-67
2022/09/07 07:51:47;;;;;;;10.65;5.15;;;;;;;31.23;63.06;96756.66;5004587;28;20096;-68
2022/09/07 07:54:13;;;;;;;9.45;3.53;;;;;;;30.68;63.45;96752.09;5016929;28;20041;-67
2022/09/07 07:56:38;;;;;;;9.30;4.20;;;;;;;30.48;62.45;96750.13;5026202;28;20084;-67
2022/09/07 07:59:04;;;;;;;6.28;2.65;;;;;;;30.47;60.66;96755.00;5010402;28;20448;-68
2022/09/07 08:01:29;;;;;;;4.53;2.20;;;;;;;29.13;62.93;96743.59;5031525;28;20137;-69
2022/09/07 08:03:55;;;;;;;7.30;2.35;;;;;;;28.65;66.32;96755.13;5024526;28;20064;-69
2022/09/07 08:06:21;;;;;;;5.22;2.00;;;;;;;27.78;71.19;96748.41;5016629;28;20080;-69
2022/09/07 08:08:46;;;;;;;5.63;1.98;;;;;;;26.39;77.44;96744.69;5022683;28;20050;-69
2022/09/07 08:11:16;;;;;;;3.63;1.70;;;;;;;25.21;85.29;96750.56;4994757;28;20486;-68
2022/09/07 08:13:42;;;;;;;;;;;;;;;24.81;88.66;96749.34;5029540;28;20065;-69
2022/09/07 08:16:08;;;;;;;6.70;2.08;;;;;;;24.92;88.60;96744.09;5025447;28;19913;-68
2022/09/07 08:18:35;;;;;;;6.32;1.83;;;;;;;25.72;85.09;96738.81;5040828;28;20049;-68
2022/09/07 08:21:03;;;;;;;7.65;1.80;;;;;;;25.37;85.68;96748.31;5027956;28;20049;-67
2022/09/07 08:23:30;;;;;;;4.65;1.50;;;;;;;25.22;85.36;96749.31;5019980;28;20044;-67
2022/09/07 08:25:57;;;;;;;9.82;1.92;;;;;;;25.85;81.34;96747.84;5041769;28;20037;-67
2022/09/07 08:28:26;;;;;;;6.03;1.52;;;;;;;26.83;71.38;96752.69;4996475;28;20033;-69
2022/09/07 08:30:51;;;;;;;7.68;1.50;;;;;;;26.75;75.70;96746.63;5031677;28;20060;-68
2022/09/07 08:33:17;;;;;;;8.00;1.95;;;;;;;26.56;76.16;96743.09;5016748;28;20034;-68
2022/09/07 08:35:59;;;;;;;3.83;1.63;;;;;;;25.85;79.51;96738.66;5018931;28;20049;-69
2022/09/07 08:38:27;;;;;;;5.43;1.50;;;;;;;24.52;88.64;96733.63;5024213;28;20071;-68
2022/09/07 08:40:53;;;;;;;7.07;1.70;;;;;;;23.56;97.48;96732.34;5034829;28;20037;-68
2022/09/07 08:43:51;;;;;;;5.18;1.77;;;;;;;23.54;100.00;96727.19;5023859;28;20253;-67
2022/09/07 08:46:35;;;;;;;6.68;1.83;;;;;;;23.67;100.00;96730.72;5026852;28;20080;-67
2022/09/07 08:49:02;;;;;;;4.75;1.42;;;;;;;23.44;96.53;96717.97;5019333;28;20571;-67
2022/09/07 08:51:45;;;;;;;6.95;1.80;;;;;;;24.98;83.22;96728.25;5011357;28;20045;-68
2022/09/07 08:54:12;;;;;;;5.47;1.33;;;;;;;25.30;82.74;96733.78;5013973;28;20044;-68
2022/09/07 08:56:43;;;;;;;4.10;1.45;;;;;;;25.38;83.99;96729.44;5024864;28;20048;-68
2022/09/07 08:59:24;;;;;;;6.07;1.88;;;;;;;25.78;78.81;96720.13;5026042;28;20398;-68
2022/09/07 09:01:50;;;;;;;4.38;1.98;;;;;;;25.71;79.30;96721.22;5029489;28;20398;-69
2022/09/07 09:04:25;;;;;;;5.40;1.58;;;;;;;26.17;71.17;96716.84;5030822;28;20113;-68
2022/09/07 09:07:23;;;;;;;8.27;1.42;;;;;;;26.58;69.79;96717.31;5038360;28;20045;-68
2022/09/07 09:10:11;;;;;;;7.07;1.52;;;;;;;27.75;67.04;96718.44;5006075;28;20053;-68
2022/09/07 09:12:54;;;;;;;3.85;1.17;;;;;;;28.33;61.67;96718.22;5034118;28;20042;-67
2022/09/07 09:15:21;;;;;;;10.90;1.65;;;;;;;29.38;59.32;96705.50;5024210;28;20052;-68
2022/09/07 09:18:09;;;;;;;7.20;1.83;;;;;;;29.84;56.41;96715.31;5026883;28;20402;-67
2022/09/07 09:20:48;;;;;;;7.33;1.80;;;;;;;29.00;58.35;96706.50;5019421;28;20042;-66
2022/09/07 09:23:16;;;;;;;8.48;1.50;;;;;;;28.62;60.46;96705.41;5010823;28;20076;-67
2022/09/07 09:25:58;;;;;;;6.57;1.70;;;;;;;28.03;60.28;96698.50;5017840;28;20060;-69
2022/09/07 09:28:23;;;;;;;6.45;1.65;;;;;;;27.52;63.89;96702.38;5018046;28;20041;-69
2022/09/07 09:30:49;;;;;;;4.10;1.55;;;;;;;27.29;64.68;96701.88;5005819;28;20070;-68
2022/09/07 09:33:21;;;;;;;5.13;1.40;;;;;;;27.34;64.92;96694.84;5032388;28;20037;-68
2022/09/07 09:35:49;;;;;;;7.15;1.52;;;;;;;27.58;64.50;96698.38;5023040;28;20514;-69
2022/09/07 09:38:33;;;;;;;9.57;1.58;;;;;;;28.12;63.86;96694.81;5007761;28;20077;-69
2022/09/07 09:41:10;;;;;;;9.43;1.42;;;;;;;29.41;58.35;96700.94;5019046;28;20526;-69
2022/09/07 09:43:50;;;;;;;9.45;1.65;;;;;;;29.77;56.20;96710.13;5022759;28;20429;-69
2022/09/07 09:46:33;;;;;;;7.60;1.65;;;;;;;29.98;55.01;96708.81;4983438;28;20080;-69
2022/09/07 09:48:59;;;;;;;5.68;1.00;;;;;;;29.72;55.64;96712.31;5021786;28;20048;-68
2022/09/07 09:51:31;;;;;;;4.57;1.33;;;;;;;29.68;55.34;96703.31;5013981;28;20041;-69
2022/09/07 09:54:24;;;;;;;7.03;1.30;;;;;;;29.17;57.91;96693.41;5023560;28;20131;-69
2022/09/07 09:56:51;;;;;;;8.75;1.45;;;;;;;28.90;56.77;96688.91;5018023;28;20136;-67
2022/09/07 09:59:16;;;;;;;5.47;1.58;;;;;;;28.90;58.83;96686.09;5015062;28;20100;-69
2022/09/07 10:01:43;;;;;;;6.32;1.30;;;;;;;29.16;60.76;96677.78;5020747;28;20445;-69
2022/09/07 10:04:32;;;;;;;6.47;1.60;;;;;;;29.93;57.85;96672.81;5023266;28;20120;-69
2022/09/07 10:07:09;;;;;;;6.45;1.70;;;;;;;29.65;57.92;96661.19;5015940;28;20572;-69
2022/09/07 10:09:40;;;;;;;7.72;1.65;;;;;;;29.55;57.88;96669.03;5020077;28;20128;-68
2022/09/07 10:12:21;;;;;;;4.85;1.60;;;;;;;28.95;58.78;96666.44;5018222;28;20045;-68
2022/09/07 10:14:47;;;;;;;10.15;1.73;;;;;;;29.29;60.42;96660.50;5004396;28;20132;-68
2022/09/07 10:17:21;;;;;;;6.00;1.40;;;;;;;29.91;57.85;96661.25;5013273;28;20439;-67
2022/09/07 10:19:48;;;;;;;4.50;1.30;;;;;;;30.18;55.93;96657.13;5008261;28;20107;-67
2022/09/07 10:22:22;;;;;;;8.02;1.55;;;;;;;29.67;57.47;96650.19;5016449;28;20052;-68
2022/09/07 10:24:49;;;;;;;6.80;1.70;;;;;;;29.26;59.49;96653.81;4996480;28;20128;-67
2022/09/07 10:27:39;;;;;;;7.88;1.55;;;;;;;29.55;56.81;96641.59;5018970;28;20042;-68
2022/09/07 10:30:15;;;;;;;8.93;1.65;;;;;;;29.66;56.96;96631.72;5015105;28;20112;-67
2022/09/07 10:33:26;;;;;;;6.35;1.83;;;;;;;29.64;56.66;96626.56;5001792;28;20033;-69
2022/09/07 10:36:00;;;;;;;7.35;1.77;;;;;;;29.59;57.62;96615.22;4990306;28;20120;-69
2022/09/07 10:38:29;;;;;;;7.15;1.65;;;;;;;29.24;59.08;96618.91;5014833;28;20541;-69
2022/09/07 10:41:00;;;;;;;15.10;1.95;;;;;;;28.88;58.52;96609.72;5022470;28;20051;-68
2022/09/07 10:43:44;;;;;;;7.93;1.30;;;;;;;28.98;58.31;96606.25;5017495;28;20064;-69
2022/09/07 10:46:31;;;;;;;12.60;2.13;;;;;;;29.68;55.85;96609.41;5002602;28;20049;-67
2022/09/07 10:49:10;;;;;;;5.40;1.65;;;;;;;28.98;58.22;96600.63;5017221;28;20128;-68
2022/09/07 10:51:42;;;;;;;8.98;1.95;;;;;;;28.06;62.49;96593.38;5000832;28;20034;-67
2022/09/07 10:54:20;;;;;;;9.20;1.63;;;;;;;28.18;61.88;96600.75;5013448;28;20056;-68
2022/09/07 10:56:57;;;;;;;7.13;1.60;;;;;;;28.61;60.63;96591.91;5018080;28;20525;-68
2022/09/07 10:59:36;;;;;;;8.93;1.75;;;;;;;28.19;60.10;96593.84;5016803;28;20080;-68
2022/09/07 11:02:08;;;;;;;13.60;2.00;;;;;;;27.64;63.98;96589.56;5027752;28;20041;-68
2022/09/07 11:05:32;;;;;;;9.32;1.90;;;;;;;28.11;62.68;96581.44;5026198;28;20049;-69
2022/09/07 11:08:15;;;;;;;8.65;1.90;;;;;;;28.17;61.88;96571.03;4895148;28;20103;-68
2022/09/07 11:10:53;;;;;;;6.57;1.90;;;;;;;28.37;63.25;96563.91;5019975;28;20043;-68
2022/09/07 11:13:23;;;;;;;10.02;2.30;;;;;;;27.99;63.28;96571.25;5020880;28;20076;-68
2022/09/07 11:15:57;;;;;;;13.32;2.97;;;;;;;27.89;66.94;96562.09;5017802;28;20589;-69
2022/09/07 11:18:48;;;;;;;5.20;2.00;;;;;;;27.45;68.29;96560.06;5007019;28;20340;-68
2022/09/07 11:21:18;;;;;;;5.53;1.58;;;;;;;27.90;67.08;96552.44;5021849;28;20090;-68
2022/09/07 11:24:10;;;;;;;;;;;;;;;28.95;62.80;96548.03;5020288;28;20046;-68
2022/09/07 11:26:47;;;;;;;7.32;1.83;;;;;;;29.49;58.30;96550.47;4999177;28;19917;-68
2022/09/07 11:29:24;;;;;;;9.52;1.60;;;;;;;29.69;57.11;96549.66;5016927;28;20042;-68
2022/09/07 11:31:54;;;;;;;5.38;1.70;;;;;;;29.72;57.73;96545.81;5022916;28;20091;-68
2022/09/07 11:34:32;;;;;;;7.00;1.50;;;;;;;29.36;57.68;96535.97;5014976;28;20041;-68
2022/09/07 11:37:09;;;;;;;11.15;2.25;;;;;;;29.79;55.90;96541.78;5006032;28;20418;-68
2022/09/07 11:39:45;;;;;;;8.88;1.70;;;;;;;29.53;56.91;96538.94;4988777;28;20045;-67